sensor_id;sensor_type;location;lat;lon;timestamp;P1;durP1;ratioP1;P2;durP2;ratioP2
26157;SDS011;67284;44.782;10.282;2023-06-01T00:00:57;19.02;;;10.27;;
26157;SDS011;67284;44.782;10.282;2023-06-01T00:05:50;11.32;;;8.85;;
26157;SDS011;67284;44.782;10.282;2023-06-01T00:10:42;11.63;;;9.13;;
26157;SDS011;67284;44.782;10.282;2023-06-01T00:15:35;19.73;;;9.07;;
26157;SDS011;67284;44.782;10.282;2023-06-01T00:20:27;11.25;;;8.05;;
26157;SDS011;67284;44.782;10.282;2023-06-01T00:25:20;12.88;;;8.38;;
26157;SDS011;67284;44.782;10.282;2023-06-01T00:30:12;10.60;;;8.65;;
26157;SDS011;67284;44.782;10.282;2023-06-01T00:35:05;10.25;;;8.50;;
26157;SDS011;67284;44.782;10.282;2023-06-01T00:39:57;17.40;;;9.18;;
26157;SDS011;67284;44.782;10.282;2023-06-01T00:44:49;13.07;;;8.60;;
26157;SDS011;67284;44.782;10.282;2023-06-01T00:49:41;13.40;;;8.32;;
26157;SDS011;67284;44.782;10.282;2023-06-01T00:54:34;11.43;;;8.48;;
26157;SDS011;67284;44.782;10.282;2023-06-01T00:59:26;14.82;;;8.55;;
26157;SDS011;67284;44.782;10.282;2023-06-01T01:04:18;12.95;;;7.57;;
26157;SDS011;67284;44.782;10.282;2023-06-01T01:14:22;10.50;;;7.80;;
26157;SDS011;67284;44.782;10.282;2023-06-01T01:29:47;9.68;;;7.40;;
26157;SDS011;67284;44.782;10.282;2023-06-01T01:34:40;12.52;;;8.02;;
26157;SDS011;67284;44.782;10.282;2023-06-01T01:39:36;10.73;;;8.15;;
26157;SDS011;67284;44.782;10.282;2023-06-01T01:44:28;11.75;;;7.43;;
26157;SDS011;67284;44.782;10.282;2023-06-01T01:49:22;16.15;;;7.43;;
26157;SDS011;67284;44.782;10.282;2023-06-01T01:54:20;13.57;;;8.52;;
26157;SDS011;67284;44.782;10.282;2023-06-01T01:59:13;11.90;;;8.15;;
26157;SDS011;67284;44.782;10.282;2023-06-01T02:04:07;12.75;;;8.73;;
26157;SDS011;67284;44.782;10.282;2023-06-01T02:08:59;10.60;;;8.05;;
26157;SDS011;67284;44.782;10.282;2023-06-01T02:13:52;12.85;;;8.95;;
26157;SDS011;67284;44.782;10.282;2023-06-01T02:18:44;16.65;;;10.35;;
26157;SDS011;67284;44.782;10.282;2023-06-01T02:23:37;15.85;;;9.60;;
26157;SDS011;67284;44.782;10.282;2023-06-01T02:28:31;17.38;;;9.57;;
26157;SDS011;67284;44.782;10.282;2023-06-01T02:33:22;16.17;;;10.52;;
26157;SDS011;67284;44.782;10.282;2023-06-01T02:38:16;13.43;;;9.25;;
26157;SDS011;67284;44.782;10.282;2023-06-01T02:43:08;15.45;;;9.80;;
26157;SDS011;67284;44.782;10.282;2023-06-01T02:48:00;14.43;;;9.63;;
26157;SDS011;67284;44.782;10.282;2023-06-01T02:52:53;15.07;;;11.25;;
26157;SDS011;67284;44.782;10.282;2023-06-01T02:57:45;11.20;;;9.38;;
26157;SDS011;67284;44.782;10.282;2023-06-01T03:02:37;14.05;;;9.35;;
26157;SDS011;67284;44.782;10.282;2023-06-01T03:07:29;15.65;;;9.10;;
26157;SDS011;67284;44.782;10.282;2023-06-01T03:12:27;13.85;;;8.32;;
26157;SDS011;67284;44.782;10.282;2023-06-01T03:17:19;11.93;;;7.85;;
26157;SDS011;67284;44.782;10.282;2023-06-01T03:22:10;11.90;;;8.10;;
26157;SDS011;67284;44.782;10.282;2023-06-01T03:27:02;10.85;;;7.68;;
26157;SDS011;67284;44.782;10.282;2023-06-01T03:31:58;11.82;;;8.18;;
26157;SDS011;67284;44.782;10.282;2023-06-01T03:36:51;11.60;;;6.95;;
26157;SDS011;67284;44.782;10.282;2023-06-01T03:41:44;10.13;;;7.32;;
26157;SDS011;67284;44.782;10.282;2023-06-01T03:46:36;10.95;;;7.68;;
26157;SDS011;67284;44.782;10.282;2023-06-01T03:51:28;13.45;;;8.10;;
26157;SDS011;67284;44.782;10.282;2023-06-01T03:56:21;11.93;;;7.50;;
26157;SDS011;67284;44.782;10.282;2023-06-01T04:01:15;12.80;;;7.68;;
26157;SDS011;67284;44.782;10.282;2023-06-01T04:06:12;9.82;;;7.65;;
26157;SDS011;67284;44.782;10.282;2023-06-01T04:11:11;10.57;;;7.93;;
26157;SDS011;67284;44.782;10.282;2023-06-01T04:16:03;10.85;;;7.70;;
26157;SDS011;67284;44.782;10.282;2023-06-01T04:20:56;11.00;;;7.88;;
26157;SDS011;67284;44.782;10.282;2023-06-01T04:25:48;10.73;;;7.95;;
26157;SDS011;67284;44.782;10.282;2023-06-01T04:30:43;13.88;;;8.13;;
26157;SDS011;67284;44.782;10.282;2023-06-01T04:35:39;11.50;;;8.13;;
26157;SDS011;67284;44.782;10.282;2023-06-01T04:40:32;14.20;;;8.05;;
26157;SDS011;67284;44.782;10.282;2023-06-01T04:45:25;12.85;;;7.38;;
26157;SDS011;67284;44.782;10.282;2023-06-01T04:50:17;11.02;;;6.97;;
26157;SDS011;67284;44.782;10.282;2023-06-01T04:55:09;12.95;;;7.05;;
26157;SDS011;67284;44.782;10.282;2023-06-01T05:00:03;9.82;;;7.10;;
26157;SDS011;67284;44.782;10.282;2023-06-01T05:04:58;11.30;;;7.82;;
26157;SDS011;67284;44.782;10.282;2023-06-01T05:09:50;9.73;;;7.68;;
26157;SDS011;67284;44.782;10.282;2023-06-01T05:14:43;10.05;;;7.50;;
26157;SDS011;67284;44.782;10.282;2023-06-01T05:19:35;10.63;;;7.68;;
26157;SDS011;67284;44.782;10.282;2023-06-01T05:24:28;8.80;;;6.93;;
26157;SDS011;67284;44.782;10.282;2023-06-01T05:29:19;11.10;;;7.40;;
26157;SDS011;67284;44.782;10.282;2023-06-01T05:34:12;10.98;;;7.85;;
26157;SDS011;67284;44.782;10.282;2023-06-01T05:39:05;11.27;;;8.20;;
26157;SDS011;67284;44.782;10.282;2023-06-01T05:43:58;10.35;;;7.78;;
26157;SDS011;67284;44.782;10.282;2023-06-01T05:48:51;11.15;;;8.02;;
26157;SDS011;67284;44.782;10.282;2023-06-01T05:53:43;9.93;;;8.00;;
26157;SDS011;67284;44.782;10.282;2023-06-01T05:58:35;11.68;;;7.25;;
26157;SDS011;67284;44.782;10.282;2023-06-01T06:03:27;9.68;;;7.50;;
26157;SDS011;67284;44.782;10.282;2023-06-01T06:08:20;13.30;;;8.48;;
26157;SDS011;67284;44.782;10.282;2023-06-01T06:13:13;9.35;;;7.28;;
26157;SDS011;67284;44.782;10.282;2023-06-01T06:18:06;11.05;;;8.10;;
26157;SDS011;67284;44.782;10.282;2023-06-01T06:22:58;14.93;;;9.52;;
26157;SDS011;67284;44.782;10.282;2023-06-01T06:27:50;16.25;;;10.23;;
26157;SDS011;67284;44.782;10.282;2023-06-01T06:32:42;15.80;;;10.10;;
26157;SDS011;67284;44.782;10.282;2023-06-01T06:37:34;15.20;;;10.98;;
26157;SDS011;67284;44.782;10.282;2023-06-01T06:42:26;16.67;;;10.45;;
26157;SDS011;67284;44.782;10.282;2023-06-01T06:47:19;18.42;;;10.98;;
26157;SDS011;67284;44.782;10.282;2023-06-01T06:52:11;18.90;;;12.82;;
26157;SDS011;67284;44.782;10.282;2023-06-01T06:57:03;18.17;;;11.57;;
26157;SDS011;67284;44.782;10.282;2023-06-01T07:01:56;14.32;;;10.48;;
26157;SDS011;67284;44.782;10.282;2023-06-01T07:07:02;14.27;;;10.60;;
26157;SDS011;67284;44.782;10.282;2023-06-01T07:12:01;17.65;;;11.68;;
26157;SDS011;67284;44.782;10.282;2023-06-01T07:16:53;22.55;;;11.70;;
26157;SDS011;67284;44.782;10.282;2023-06-01T07:21:45;18.30;;;12.93;;
26157;SDS011;67284;44.782;10.282;2023-06-01T07:26:38;14.80;;;10.60;;
26157;SDS011;67284;44.782;10.282;2023-06-01T07:31:31;15.70;;;11.30;;
26157;SDS011;67284;44.782;10.282;2023-06-01T07:36:24;18.30;;;10.90;;
26157;SDS011;67284;44.782;10.282;2023-06-01T07:41:16;17.80;;;11.70;;
26157;SDS011;67284;44.782;10.282;2023-06-01T07:46:08;14.68;;;10.75;;
26157;SDS011;67284;44.782;10.282;2023-06-01T07:51:00;15.10;;;11.40;;
26157;SDS011;67284;44.782;10.282;2023-06-01T07:55:52;20.55;;;13.73;;
26157;SDS011;67284;44.782;10.282;2023-06-01T08:00:44;17.00;;;11.50;;
26157;SDS011;67284;44.782;10.282;2023-06-01T08:05:36;18.10;;;12.23;;
26157;SDS011;67284;44.782;10.282;2023-06-01T08:10:29;19.30;;;11.90;;
26157;SDS011;67284;44.782;10.282;2023-06-01T08:15:22;14.30;;;11.75;;
26157;SDS011;67284;44.782;10.282;2023-06-01T08:20:15;12.55;;;10.02;;
26157;SDS011;67284;44.782;10.282;2023-06-01T08:25:07;16.38;;;10.93;;
26157;SDS011;67284;44.782;10.282;2023-06-01T08:29:59;14.10;;;10.75;;
26157;SDS011;67284;44.782;10.282;2023-06-01T08:34:51;16.42;;;11.48;;
26157;SDS011;67284;44.782;10.282;2023-06-01T08:39:42;17.23;;;11.85;;
26157;SDS011;67284;44.782;10.282;2023-06-01T08:44:43;17.40;;;11.93;;
26157;SDS011;67284;44.782;10.282;2023-06-01T08:49:36;17.25;;;11.00;;
26157;SDS011;67284;44.782;10.282;2023-06-01T08:54:28;14.18;;;11.98;;
26157;SDS011;67284;44.782;10.282;2023-06-01T08:59:23;18.40;;;11.90;;
26157;SDS011;67284;44.782;10.282;2023-06-01T09:04:15;16.85;;;10.65;;
26157;SDS011;67284;44.782;10.282;2023-06-01T09:09:07;22.10;;;12.20;;
26157;SDS011;67284;44.782;10.282;2023-06-01T09:14:08;17.63;;;13.30;;
26157;SDS011;67284;44.782;10.282;2023-06-01T09:19:12;14.90;;;10.35;;
26157;SDS011;67284;44.782;10.282;2023-06-01T09:24:20;16.65;;;11.35;;
26157;SDS011;67284;44.782;10.282;2023-06-01T09:29:13;16.20;;;11.25;;
26157;SDS011;67284;44.782;10.282;2023-06-01T09:34:05;16.60;;;11.75;;
26157;SDS011;67284;44.782;10.282;2023-06-01T09:39:03;20.97;;;12.23;;
26157;SDS011;67284;44.782;10.282;2023-06-01T09:43:58;15.98;;;11.65;;
26157;SDS011;67284;44.782;10.282;2023-06-01T09:49:03;23.15;;;11.93;;
26157;SDS011;67284;44.782;10.282;2023-06-01T09:53:57;14.80;;;10.60;;
26157;SDS011;67284;44.782;10.282;2023-06-01T09:58:55;14.18;;;10.75;;
26157;SDS011;67284;44.782;10.282;2023-06-01T10:03:48;16.27;;;11.68;;
26157;SDS011;67284;44.782;10.282;2023-06-01T10:08:45;16.83;;;12.23;;
26157;SDS011;67284;44.782;10.282;2023-06-01T10:13:39;17.10;;;12.15;;
26157;SDS011;67284;44.782;10.282;2023-06-01T10:18:32;13.95;;;10.88;;
26157;SDS011;67284;44.782;10.282;2023-06-01T10:23:24;17.10;;;12.95;;
26157;SDS011;67284;44.782;10.282;2023-06-01T10:28:22;13.80;;;10.63;;
26157;SDS011;67284;44.782;10.282;2023-06-01T10:33:15;13.00;;;10.32;;
26157;SDS011;67284;44.782;10.282;2023-06-01T10:38:44;14.13;;;10.97;;
26157;SDS011;67284;44.782;10.282;2023-06-01T10:53:46;15.23;;;11.10;;
26157;SDS011;67284;44.782;10.282;2023-06-01T10:58:38;17.65;;;10.27;;
26157;SDS011;67284;44.782;10.282;2023-06-01T11:03:43;12.75;;;10.48;;
26157;SDS011;67284;44.782;10.282;2023-06-01T11:13:30;14.25;;;10.68;;
26157;SDS011;67284;44.782;10.282;2023-06-01T11:23:33;14.77;;;11.40;;
26157;SDS011;67284;44.782;10.282;2023-06-01T11:28:26;13.88;;;10.60;;
26157;SDS011;67284;44.782;10.282;2023-06-01T11:33:18;14.32;;;11.55;;
26157;SDS011;67284;44.782;10.282;2023-06-01T11:38:11;19.60;;;11.68;;
26157;SDS011;67284;44.782;10.282;2023-06-01T11:43:03;16.10;;;12.18;;
26157;SDS011;67284;44.782;10.282;2023-06-01T11:47:55;13.48;;;10.32;;
26157;SDS011;67284;44.782;10.282;2023-06-01T11:52:47;14.00;;;10.50;;
26157;SDS011;67284;44.782;10.282;2023-06-01T11:57:42;16.77;;;11.32;;
26157;SDS011;67284;44.782;10.282;2023-06-01T12:02:34;17.15;;;10.48;;
26157;SDS011;67284;44.782;10.282;2023-06-01T12:07:27;13.50;;;9.77;;
26157;SDS011;67284;44.782;10.282;2023-06-01T12:12:22;11.25;;;9.55;;
26157;SDS011;67284;44.782;10.282;2023-06-01T12:17:15;12.82;;;10.00;;
26157;SDS011;67284;44.782;10.282;2023-06-01T12:22:08;13.48;;;10.05;;
26157;SDS011;67284;44.782;10.282;2023-06-01T12:27:03;13.45;;;9.98;;
26157;SDS011;67284;44.782;10.282;2023-06-01T12:32:09;13.85;;;10.23;;
26157;SDS011;67284;44.782;10.282;2023-06-01T12:37:15;16.20;;;10.52;;
26157;SDS011;67284;44.782;10.282;2023-06-01T12:42:10;11.77;;;9.73;;
26157;SDS011;67284;44.782;10.282;2023-06-01T12:47:03;12.48;;;10.20;;
26157;SDS011;67284;44.782;10.282;2023-06-01T12:51:55;16.48;;;9.48;;
26157;SDS011;67284;44.782;10.282;2023-06-01T12:56:47;13.05;;;9.60;;
26157;SDS011;67284;44.782;10.282;2023-06-01T13:01:40;13.48;;;9.65;;
26157;SDS011;67284;44.782;10.282;2023-06-01T13:06:33;12.10;;;8.75;;
26157;SDS011;67284;44.782;10.282;2023-06-01T13:11:26;9.55;;;8.23;;
26157;SDS011;67284;44.782;10.282;2023-06-01T13:16:19;11.02;;;9.15;;
26157;SDS011;67284;44.782;10.282;2023-06-01T13:21:12;13.45;;;10.00;;
26157;SDS011;67284;44.782;10.282;2023-06-01T13:26:04;12.98;;;9.20;;
26157;SDS011;67284;44.782;10.282;2023-06-01T13:30:56;10.95;;;9.02;;
26157;SDS011;67284;44.782;10.282;2023-06-01T13:35:48;13.73;;;9.57;;
26157;SDS011;67284;44.782;10.282;2023-06-01T13:40:40;13.45;;;8.68;;
26157;SDS011;67284;44.782;10.282;2023-06-01T13:45:32;14.20;;;9.60;;
26157;SDS011;67284;44.782;10.282;2023-06-01T13:50:24;15.32;;;9.07;;
26157;SDS011;67284;44.782;10.282;2023-06-01T13:55:16;11.48;;;8.93;;
26157;SDS011;67284;44.782;10.282;2023-06-01T14:00:09;10.60;;;9.13;;
26157;SDS011;67284;44.782;10.282;2023-06-01T14:05:07;12.15;;;9.18;;
26157;SDS011;67284;44.782;10.282;2023-06-01T14:10:11;10.50;;;8.68;;
26157;SDS011;67284;44.782;10.282;2023-06-01T14:15:05;12.45;;;9.18;;
26157;SDS011;67284;44.782;10.282;2023-06-01T14:19:57;13.23;;;9.18;;
26157;SDS011;67284;44.782;10.282;2023-06-01T14:24:49;11.77;;;8.93;;
26157;SDS011;67284;44.782;10.282;2023-06-01T14:29:41;12.20;;;9.40;;
26157;SDS011;67284;44.782;10.282;2023-06-01T14:34:34;11.30;;;9.15;;
26157;SDS011;67284;44.782;10.282;2023-06-01T14:39:26;10.27;;;9.20;;
26157;SDS011;67284;44.782;10.282;2023-06-01T14:44:18;11.80;;;9.15;;
26157;SDS011;67284;44.782;10.282;2023-06-01T14:49:10;13.32;;;9.25;;
26157;SDS011;67284;44.782;10.282;2023-06-01T14:54:02;15.77;;;9.40;;
26157;SDS011;67284;44.782;10.282;2023-06-01T14:58:54;12.32;;;8.68;;
26157;SDS011;67284;44.782;10.282;2023-06-01T15:03:46;13.35;;;9.18;;
26157;SDS011;67284;44.782;10.282;2023-06-01T15:08:38;13.30;;;8.68;;
26157;SDS011;67284;44.782;10.282;2023-06-01T15:13:30;12.57;;;8.90;;
26157;SDS011;67284;44.782;10.282;2023-06-01T15:18:22;16.42;;;10.02;;
26157;SDS011;67284;44.782;10.282;2023-06-01T15:23:14;11.50;;;8.52;;
26157;SDS011;67284;44.782;10.282;2023-06-01T15:28:07;9.50;;;8.50;;
26157;SDS011;67284;44.782;10.282;2023-06-01T15:32:59;12.70;;;8.55;;
26157;SDS011;67284;44.782;10.282;2023-06-01T15:37:57;12.15;;;9.15;;
26157;SDS011;67284;44.782;10.282;2023-06-01T15:42:49;12.75;;;8.60;;
26157;SDS011;67284;44.782;10.282;2023-06-01T15:47:41;9.75;;;8.05;;
26157;SDS011;67284;44.782;10.282;2023-06-01T15:52:33;13.35;;;8.38;;
26157;SDS011;67284;44.782;10.282;2023-06-01T15:57:25;11.70;;;8.95;;
26157;SDS011;67284;44.782;10.282;2023-06-01T16:02:21;10.23;;;7.95;;
26157;SDS011;67284;44.782;10.282;2023-06-01T16:07:13;13.85;;;8.45;;
26157;SDS011;67284;44.782;10.282;2023-06-01T16:12:05;10.93;;;9.07;;
26157;SDS011;67284;44.782;10.282;2023-06-01T16:16:58;15.75;;;9.38;;
26157;SDS011;67284;44.782;10.282;2023-06-01T16:21:52;10.40;;;8.57;;
26157;SDS011;67284;44.782;10.282;2023-06-01T16:26:44;14.23;;;9.50;;
26157;SDS011;67284;44.782;10.282;2023-06-01T16:31:36;11.45;;;8.50;;
26157;SDS011;67284;44.782;10.282;2023-06-01T16:36:31;9.98;;;8.38;;
26157;SDS011;67284;44.782;10.282;2023-06-01T16:41:23;13.98;;;8.68;;
26157;SDS011;67284;44.782;10.282;2023-06-01T16:46:15;10.35;;;7.18;;
26157;SDS011;67284;44.782;10.282;2023-06-01T16:51:07;10.43;;;8.48;;
26157;SDS011;67284;44.782;10.282;2023-06-01T16:55:59;13.18;;;8.00;;
26157;SDS011;67284;44.782;10.282;2023-06-01T17:00:51;11.18;;;8.98;;
26157;SDS011;67284;44.782;10.282;2023-06-01T17:05:43;12.43;;;8.50;;
26157;SDS011;67284;44.782;10.282;2023-06-01T17:10:35;10.15;;;8.40;;
26157;SDS011;67284;44.782;10.282;2023-06-01T17:15:27;10.32;;;8.25;;
26157;SDS011;67284;44.782;10.282;2023-06-01T17:20:21;10.85;;;8.38;;
26157;SDS011;67284;44.782;10.282;2023-06-01T17:25:13;9.15;;;7.80;;
26157;SDS011;67284;44.782;10.282;2023-06-01T17:30:05;12.38;;;8.55;;
26157;SDS011;67284;44.782;10.282;2023-06-01T17:34:57;10.10;;;7.97;;
26157;SDS011;67284;44.782;10.282;2023-06-01T17:39:49;10.65;;;8.30;;
26157;SDS011;67284;44.782;10.282;2023-06-01T17:44:41;12.00;;;8.45;;
26157;SDS011;67284;44.782;10.282;2023-06-01T17:49:33;9.38;;;7.70;;
26157;SDS011;67284;44.782;10.282;2023-06-01T17:54:25;12.23;;;8.60;;
26157;SDS011;67284;44.782;10.282;2023-06-01T17:59:19;11.82;;;8.32;;
26157;SDS011;67284;44.782;10.282;2023-06-01T18:04:10;12.70;;;8.80;;
26157;SDS011;67284;44.782;10.282;2023-06-01T18:09:02;13.77;;;8.07;;
26157;SDS011;67284;44.782;10.282;2023-06-01T18:13:54;19.00;;;8.35;;
26157;SDS011;67284;44.782;10.282;2023-06-01T18:18:49;10.40;;;8.32;;
26157;SDS011;67284;44.782;10.282;2023-06-01T18:23:41;13.40;;;8.65;;
26157;SDS011;67284;44.782;10.282;2023-06-01T18:28:38;11.00;;;7.80;;
26157;SDS011;67284;44.782;10.282;2023-06-01T18:33:30;10.60;;;7.88;;
26157;SDS011;67284;44.782;10.282;2023-06-01T18:38:22;11.05;;;8.75;;
26157;SDS011;67284;44.782;10.282;2023-06-01T18:43:14;11.57;;;8.32;;
26157;SDS011;67284;44.782;10.282;2023-06-01T18:48:06;9.40;;;7.53;;
26157;SDS011;67284;44.782;10.282;2023-06-01T18:52:58;10.52;;;8.30;;
26157;SDS011;67284;44.782;10.282;2023-06-01T18:57:50;10.52;;;8.40;;
26157;SDS011;67284;44.782;10.282;2023-06-01T19:02:45;13.82;;;9.18;;
26157;SDS011;67284;44.782;10.282;2023-06-01T19:07:38;13.07;;;9.00;;
26157;SDS011;67284;44.782;10.282;2023-06-01T19:12:31;11.65;;;8.82;;
26157;SDS011;67284;44.782;10.282;2023-06-01T19:17:22;13.20;;;8.73;;
26157;SDS011;67284;44.782;10.282;2023-06-01T19:22:14;10.70;;;8.93;;
26157;SDS011;67284;44.782;10.282;2023-06-01T19:27:07;16.38;;;9.75;;
26157;SDS011;67284;44.782;10.282;2023-06-01T19:32:01;13.57;;;9.60;;
26157;SDS011;67284;44.782;10.282;2023-06-01T19:36:55;15.18;;;10.10;;
26157;SDS011;67284;44.782;10.282;2023-06-01T19:41:48;15.27;;;9.90;;
26157;SDS011;67284;44.782;10.282;2023-06-01T19:46:40;13.50;;;9.35;;
26157;SDS011;67284;44.782;10.282;2023-06-01T19:51:32;14.82;;;10.27;;
26157;SDS011;67284;44.782;10.282;2023-06-01T19:56:35;15.30;;;11.15;;
26157;SDS011;67284;44.782;10.282;2023-06-01T20:01:29;13.57;;;10.70;;
26157;SDS011;67284;44.782;10.282;2023-06-01T20:06:26;14.07;;;10.55;;
26157;SDS011;67284;44.782;10.282;2023-06-01T20:11:19;12.13;;;10.10;;
26157;SDS011;67284;44.782;10.282;2023-06-01T20:16:12;15.82;;;11.55;;
26157;SDS011;67284;44.782;10.282;2023-06-01T20:21:05;13.98;;;11.02;;
26157;SDS011;67284;44.782;10.282;2023-06-01T20:25:57;15.85;;;12.50;;
26157;SDS011;67284;44.782;10.282;2023-06-01T20:35:48;14.65;;;11.57;;
26157;SDS011;67284;44.782;10.282;2023-06-01T20:45:51;13.70;;;10.82;;
26157;SDS011;67284;44.782;10.282;2023-06-01T20:50:48;13.02;;;9.95;;
26157;SDS011;67284;44.782;10.282;2023-06-01T20:55:39;11.35;;;10.15;;
26157;SDS011;67284;44.782;10.282;2023-06-01T21:00:32;17.98;;;11.27;;
26157;SDS011;67284;44.782;10.282;2023-06-01T21:05:30;12.75;;;9.93;;
26157;SDS011;67284;44.782;10.282;2023-06-01T21:10:23;13.18;;;10.15;;
26157;SDS011;67284;44.782;10.282;2023-06-01T21:15:15;11.75;;;10.05;;
26157;SDS011;67284;44.782;10.282;2023-06-01T21:20:07;10.52;;;9.43;;
26157;SDS011;67284;44.782;10.282;2023-06-01T21:24:59;10.13;;;8.52;;
26157;SDS011;67284;44.782;10.282;2023-06-01T21:29:52;11.75;;;8.90;;
26157;SDS011;67284;44.782;10.282;2023-06-01T21:34:43;10.15;;;8.88;;
26157;SDS011;67284;44.782;10.282;2023-06-01T21:39:35;10.50;;;8.10;;
26157;SDS011;67284;44.782;10.282;2023-06-01T21:44:27;10.48;;;8.15;;
26157;SDS011;67284;44.782;10.282;2023-06-01T21:49:19;9.23;;;7.10;;
26157;SDS011;67284;44.782;10.282;2023-06-01T21:54:13;9.40;;;6.45;;
26157;SDS011;67284;44.782;10.282;2023-06-01T21:59:05;8.27;;;6.97;;
26157;SDS011;67284;44.782;10.282;2023-06-01T22:04:01;11.23;;;7.03;;
26157;SDS011;67284;44.782;10.282;2023-06-01T22:08:53;8.57;;;7.00;;
26157;SDS011;67284;44.782;10.282;2023-06-01T22:13:46;8.52;;;7.15;;
26157;SDS011;67284;44.782;10.282;2023-06-01T22:18:39;9.27;;;7.72;;
26157;SDS011;67284;44.782;10.282;2023-06-01T22:23:31;9.60;;;7.45;;
26157;SDS011;67284;44.782;10.282;2023-06-01T22:28:23;8.00;;;7.00;;
26157;SDS011;67284;44.782;10.282;2023-06-01T22:33:15;10.38;;;7.60;;
26157;SDS011;67284;44.782;10.282;2023-06-01T22:38:06;10.85;;;6.72;;
26157;SDS011;67284;44.782;10.282;2023-06-01T22:42:58;11.63;;;7.13;;
26157;SDS011;67284;44.782;10.282;2023-06-01T22:47:51;9.18;;;7.22;;
26157;SDS011;67284;44.782;10.282;2023-06-01T22:52:43;7.57;;;5.78;;
26157;SDS011;67284;44.782;10.282;2023-06-01T22:57:34;8.82;;;6.18;;
26157;SDS011;67284;44.782;10.282;2023-06-01T23:02:26;7.88;;;6.05;;
26157;SDS011;67284;44.782;10.282;2023-06-01T23:07:19;7.60;;;6.40;;
26157;SDS011;67284;44.782;10.282;2023-06-01T23:12:12;9.45;;;6.93;;
26157;SDS011;67284;44.782;10.282;2023-06-01T23:17:04;7.70;;;6.53;;
26157;SDS011;67284;44.782;10.282;2023-06-01T23:21:57;9.98;;;6.82;;
26157;SDS011;67284;44.782;10.282;2023-06-01T23:31:46;8.75;;;6.63;;
26157;SDS011;67284;44.782;10.282;2023-06-01T23:36:39;8.30;;;6.72;;
26157;SDS011;67284;44.782;10.282;2023-06-01T23:41:34;7.13;;;5.50;;
26157;SDS011;67284;44.782;10.282;2023-06-01T23:46:27;8.05;;;6.85;;
26157;SDS011;67284;44.782;10.282;2023-06-01T23:51:20;12.18;;;6.15;;
26157;SDS011;67284;44.782;10.282;2023-06-01T23:56:13;8.75;;;6.70;;
